Time;durP1;ratioP1;P1;durP2;ratioP2;P2;SDS_P1;SDS_P2;PMS_P1;PMS_P2;Temp;Humidity;BMP_temperature;BMP_pressure;BME280_temperature;BME280_humidity;BME280_pressure;Samples;Min_cycle;Max_cycle;Signal;HPM_P1;HPM_P2
2023/11/24 00:01:17;;;;;;;3.67;1.60;;;;;;;;;;5100870;28;20233;-62
2023/11/24 00:03:45;;;;;;;2.63;1.67;;;;;;;;;;5100919;28;20283;-62
2023/11/24 00:06:13;;;;;;;2.40;2.20;;;;;;;;;;5100737;28;20236;-62
2023/11/24 00:08:41;;;;;;;3.63;1.87;;;;;;;;;;5100531;28;20265;-62
2023/11/24 00:11:09;;;;;;;3.37;2.13;;;;;;;;;;5100438;28;20724;-61
2023/11/24 00:13:37;;;;;;;1.87;1.57;;;;;;;;;;5100280;28;20585;-61
2023/11/24 00:16:06;;;;;;;2.03;1.57;;;;;;;;;;5100649;28;20209;-61
2023/11/24 00:18:37;;;;;;;1.60;1.50;;;;;;;;;;5100641;28;20244;-62
2023/11/24 00:21:09;;;;;;;3.57;1.90;;;;;;;;;;5100251;28;20219;-62
2023/11/24 00:23:37;;;;;;;4.20;1.70;;;;;;;;;;5100064;28;20210;-62
2023/11/24 00:26:06;;;;;;;2.40;1.90;;;;;;;;;;5100159;28;20255;-62
2023/11/24 00:28:36;;;;;;;2.00;1.33;;;;;;;;;;5100181;28;20254;-62
2023/11/24 00:31:05;;;;;;;2.53;1.60;;;;;;;;;;5099978;28;20208;-62
2023/11/24 00:33:34;;;;;;;3.57;2.03;;;;;;;;;;5100025;28;20366;-62
2023/11/24 00:36:05;;;;;;;1.53;1.43;;;;;;;;;;5099881;28;20270;-62
2023/11/24 00:38:33;;;;;;;1.80;1.43;;;;;;;;;;5100018;28;20235;-62
2023/11/24 00:41:02;;;;;;;1.90;1.70;;;;;;;;;;5099816;28;20304;-62
2023/11/24 00:43:30;;;;;;;1.70;1.57;;;;;;;;;;5100010;28;20205;-62
2023/11/24 00:45:58;;;;;;;1.77;1.67;;;;;;;;;;5099840;28;20567;-62
2023/11/24 00:48:26;;;;;;;2.73;1.50;;;;;;;;;;5100008;28;20209;-63
2023/11/24 00:50:54;;;;;;;3.20;1.80;;;;;;;;;;5099614;28;20205;-62
2023/11/24 00:53:23;;;;;;;2.40;2.03;;;;;;;;;;5099152;28;20618;-62
2023/11/24 00:55:51;;;;;;;2.80;1.63;;;;;;;;;;5099616;28;20257;-62
2023/11/24 00:58:19;;;;;;;1.50;1.40;;;;;;;;;;5099796;28;20237;-62
2023/11/24 01:00:47;;;;;;;1.20;1.20;;;;;;;;;;5099741;28;20231;-62
2023/11/24 01:03:16;;;;;;;1.97;1.53;;;;;;;;;;5084851;28;20210;-62
2023/11/24 01:05:44;;;;;;;2.00;1.80;;;;;;;;;;5079085;28;20265;-62
2023/11/24 01:08:12;;;;;;;1.40;1.30;;;;;;;;;;5079116;28;20240;-62
2023/11/24 01:10:42;;;;;;;1.53;1.30;;;;;;;;;;5079441;28;20210;-63
2023/11/24 01:13:10;;;;;;;1.50;1.40;;;;;;;;;;5079129;28;20309;-60
2023/11/24 01:15:38;;;;;;;2.50;1.40;;;;;;;;;;5079199;28;20271;-61
2023/11/24 01:18:07;;;;;;;3.27;1.40;;;;;;;;;;5078805;28;20210;-61
2023/11/24 01:20:35;;;;;;;2.83;1.90;;;;;;;;;;5078813;28;20202;-61
2023/11/24 01:23:04;;;;;;;1.70;1.60;;;;;;;;;;5078550;28;20226;-61
2023/11/24 01:25:32;;;;;;;2.20;1.50;;;;;;;;;;5078762;28;20203;-61
2023/11/24 01:28:02;;;;;;;1.20;1.10;;;;;;;;;;5078781;28;20210;-61
2023/11/24 01:30:30;;;;;;;1.57;1.47;;;;;;;;;;5078620;28;20202;-61
2023/11/24 01:32:58;;;;;;;2.33;1.70;;;;;;;;;;5078480;28;20226;-61
2023/11/24 01:35:26;;;;;;;1.27;1.13;;;;;;;;;;5078373;28;20328;-61
2023/11/24 01:37:54;;;;;;;1.30;1.20;;;;;;;;;;5078192;28;20244;-61
2023/11/24 01:40:22;;;;;;;1.50;1.23;;;;;;;;;;5078449;28;20206;-61
2023/11/24 01:42:50;;;;;;;1.70;1.17;;;;;;;;;;5089529;28;20631;-61
2023/11/24 01:45:20;;;;;;;1.10;1.10;;;;;;;;;;5078493;28;20212;-62
2023/11/24 01:47:48;;;;;;;1.00;1.00;;;;;;;;;;5085921;28;20216;-62
2023/11/24 01:50:17;;;;;;;1.20;1.10;;;;;;;;;;5098477;28;20558;-62
2023/11/24 01:52:45;;;;;;;1.13;1.00;;;;;;;;;;5098427;28;20232;-62
2023/11/24 01:55:14;;;;;;;1.33;1.10;;;;;;;;;;5098388;28;20731;-62
2023/11/24 01:57:42;;;;;;;0.97;0.97;;;;;;;;;;5098476;28;20607;-62
2023/11/24 02:00:12;;;;;;;1.17;1.07;;;;;;;;;;5098325;28;20222;-63
2023/11/24 02:02:42;;;;;;;0.83;0.83;;;;;;;;;;5098060;28;20221;-63
2023/11/24 02:05:11;;;;;;;1.07;1.07;;;;;;;;;;5098031;28;20284;-63
2023/11/24 02:07:40;;;;;;;1.20;1.07;;;;;;;;;;5098175;28;20205;-63
2023/11/24 02:10:09;;;;;;;0.90;0.90;;;;;;;;;;5098391;28;20209;-63
2023/11/24 02:12:37;;;;;;;1.30;1.20;;;;;;;;;;5098402;28;20255;-63
2023/11/24 02:15:07;;;;;;;1.00;1.00;;;;;;;;;;5098263;28;20315;-63
2023/11/24 02:17:35;;;;;;;2.30;0.93;;;;;;;;;;5098118;28;20561;-63
2023/11/24 02:20:08;;;;;;;1.23;1.13;;;;;;;;;;5098108;28;20213;-63
2023/11/24 02:22:41;;;;;;;0.97;0.97;;;;;;;;;;5097651;28;20233;-63
2023/11/24 02:25:10;;;;;;;3.30;1.30;;;;;;;;;;5098461;28;20214;-63
2023/11/24 02:27:38;;;;;;;1.43;1.33;;;;;;;;;;5097884;28;20209;-62
2023/11/24 02:30:07;;;;;;;1.37;1.10;;;;;;;;;;5098226;28;20243;-62
2023/11/24 02:32:35;;;;;;;1.07;1.07;;;;;;;;;;5097812;28;20225;-61
2023/11/24 02:35:04;;;;;;;1.00;1.00;;;;;;;;;;5097686;28;20280;-62
2023/11/24 02:37:33;;;;;;;2.30;1.10;;;;;;;;;;5097807;28;20258;-63
2023/11/24 02:40:03;;;;;;;1.27;1.17;;;;;;;;;;5098149;28;20210;-63
2023/11/24 02:42:31;;;;;;;1.53;1.43;;;;;;;;;;5097227;28;20692;-63
2023/11/24 02:45:00;;;;;;;1.50;1.40;;;;;;;;;;5094058;28;20201;-63
2023/11/24 02:47:28;;;;;;;1.67;1.40;;;;;;;;;;5092350;28;20202;-63
2023/11/24 02:49:56;;;;;;;1.10;1.07;;;;;;;;;;5077542;28;20281;-61
2023/11/24 02:52:24;;;;;;;1.97;1.07;;;;;;;;;;5077404;28;20225;-63
2023/11/24 02:54:52;;;;;;;2.30;1.30;;;;;;;;;;5077204;28;20206;-63
2023/11/24 02:57:22;;;;;;;1.37;1.30;;;;;;;;;;5077511;28;20202;-63
2023/11/24 02:59:51;;;;;;;1.67;1.20;;;;;;;;;;5077716;28;20233;-63
2023/11/24 03:02:18;;;;;;;2.00;1.10;;;;;;;;;;5084160;28;20230;-63
2023/11/24 03:04:47;;;;;;;1.33;1.20;;;;;;;;;;5097779;28;20292;-63
2023/11/24 03:07:15;;;;;;;1.13;1.03;;;;;;;;;;5097741;28;20201;-63
2023/11/24 03:09:43;;;;;;;1.17;1.17;;;;;;;;;;5097480;28;20205;-63
2023/11/24 03:12:11;;;;;;;1.10;0.97;;;;;;;;;;5097723;28;20221;-63
2023/11/24 03:14:42;;;;;;;1.70;1.00;;;;;;;;;;5098442;28;20221;-63
2023/11/24 03:17:26;;;;;;;1.00;1.00;;;;;;;;;;5101685;28;20260;-62
2023/11/24 03:19:54;;;;;;;1.17;0.90;;;;;;;;;;5096274;28;20225;-63
2023/11/24 03:22:23;;;;;;;1.30;1.10;;;;;;;;;;5079791;28;20287;-63
2023/11/24 03:24:51;;;;;;;1.03;1.00;;;;;;;;;;5079484;28;20206;-62
2023/11/24 03:27:19;;;;;;;1.50;0.90;;;;;;;;;;5079884;28;20241;-63
2023/11/24 03:29:50;;;;;;;1.17;0.80;;;;;;;;;;5079843;28;20260;-62
2023/11/24 03:32:18;;;;;;;0.90;0.90;;;;;;;;;;5079435;28;20226;-63
2023/11/24 03:34:46;;;;;;;0.70;0.70;;;;;;;;;;5079532;28;20744;-61
2023/11/24 03:37:14;;;;;;;0.83;0.83;;;;;;;;;;5080610;28;20295;-63
2023/11/24 03:39:42;;;;;;;0.73;0.73;;;;;;;;;;5080579;28;20210;-63
2023/11/24 03:42:10;;;;;;;0.83;0.83;;;;;;;;;;5092446;28;20226;-61
2023/11/24 03:44:39;;;;;;;0.80;0.80;;;;;;;;;;5080890;28;20742;-61
2023/11/24 03:47:08;;;;;;;1.33;0.80;;;;;;;;;;5082444;28;20650;-63
2023/11/24 03:49:36;;;;;;;0.70;0.70;;;;;;;;;;5100912;28;20657;-63
2023/11/24 03:52:05;;;;;;;1.23;0.90;;;;;;;;;;5100941;28;20279;-62
2023/11/24 03:54:33;;;;;;;0.70;0.70;;;;;;;;;;5100877;28;20209;-63
2023/11/24 03:57:01;;;;;;;0.67;0.67;;;;;;;;;;5100936;28;20266;-63
2023/11/24 03:59:29;;;;;;;0.90;0.80;;;;;;;;;;5100757;28;20212;-62
2023/11/24 04:01:58;;;;;;;0.63;0.60;;;;;;;;;;5100543;28;20247;-62
2023/11/24 04:04:27;;;;;;;3.33;0.80;;;;;;;;;;5100610;28;20555;-62
2023/11/24 04:06:55;;;;;;;0.97;0.80;;;;;;;;;;5100531;28;20540;-62
2023/11/24 04:09:24;;;;;;;0.77;0.77;;;;;;;;;;5100622;28;20212;-63
2023/11/24 04:11:54;;;;;;;1.63;0.60;;;;;;;;;;5100432;28;20268;-62
2023/11/24 04:14:22;;;;;;;1.20;0.70;;;;;;;;;;5100700;28;20209;-64
2023/11/24 04:16:50;;;;;;;1.07;0.67;;;;;;;;;;5100536;28;20229;-63
2023/11/24 04:19:19;;;;;;;0.60;0.60;;;;;;;;;;5100521;28;20205;-63
2023/11/24 04:21:48;;;;;;;0.70;0.70;;;;;;;;;;5100264;28;20279;-63
2023/11/24 04:24:16;;;;;;;1.20;0.70;;;;;;;;;;5099992;28;20255;-62
2023/11/24 04:26:44;;;;;;;0.70;0.70;;;;;;;;;;5099531;28;20201;-62
2023/11/24 04:29:12;;;;;;;1.00;0.63;;;;;;;;;;5100118;28;20205;-62
2023/11/24 04:31:40;;;;;;;0.70;0.70;;;;;;;;;;5100028;28;20257;-62
2023/11/24 04:34:08;;;;;;;1.73;0.70;;;;;;;;;;5099857;28;20241;-63
2023/11/24 04:36:36;;;;;;;0.80;0.80;;;;;;;;;;5099820;28;20221;-63
2023/11/24 04:39:06;;;;;;;0.60;0.60;;;;;;;;;;5099727;28;20206;-63
2023/11/24 04:41:34;;;;;;;2.80;0.70;;;;;;;;;;5099928;28;20225;-63
2023/11/24 04:44:02;;;;;;;0.83;0.83;;;;;;;;;;5100080;28;20235;-63
2023/11/24 04:46:30;;;;;;;1.37;1.00;;;;;;;;;;5100118;28;20194;-63
2023/11/24 04:49:03;;;;;;;1.50;1.20;;;;;;;;;;5099600;28;20688;-63
2023/11/24 04:51:31;;;;;;;2.50;1.43;;;;;;;;;;5099807;28;20228;-63
2023/11/24 04:54:02;;;;;;;1.63;1.50;;;;;;;;;;5099537;28;20209;-64
2023/11/24 04:56:32;;;;;;;3.13;2.00;;;;;;;;;;5099749;28;20309;-63
2023/11/24 04:59:00;;;;;;;1.77;1.67;;;;;;;;;;5099707;28;20235;-64
2023/11/24 05:01:28;;;;;;;1.93;1.70;;;;;;;;;;5099667;28;20233;-63
2023/11/24 05:03:59;;;;;;;2.13;1.90;;;;;;;;;;5099640;28;20254;-62
2023/11/24 05:06:27;;;;;;;1.80;1.70;;;;;;;;;;5097584;28;20197;-63
2023/11/24 05:08:55;;;;;;;3.03;2.00;;;;;;;;;;5099133;28;20660;-62
2023/11/24 05:11:23;;;;;;;2.33;2.13;;;;;;;;;;5099549;28;20229;-62
2023/11/24 05:13:53;;;;;;;3.00;2.03;;;;;;;;;;5099428;28;20586;-63
2023/11/24 05:16:21;;;;;;;2.27;2.17;;;;;;;;;;5098772;28;20570;-62
2023/11/24 05:18:49;;;;;;;2.53;2.13;;;;;;;;;;5099137;28;20213;-63
2023/11/24 05:21:17;;;;;;;2.50;2.30;;;;;;;;;;5098686;28;20229;-62
2023/11/24 05:23:45;;;;;;;2.90;2.60;;;;;;;;;;5098853;28;20213;-63
2023/11/24 05:26:13;;;;;;;3.40;2.47;;;;;;;;;;5099167;28;20232;-62
2023/11/24 05:28:42;;;;;;;2.97;2.23;;;;;;;;;;5099310;28;20205;-62
2023/11/24 05:31:12;;;;;;;3.10;2.30;;;;;;;;;;5098993;28;20255;-62
2023/11/24 05:33:40;;;;;;;3.80;2.40;;;;;;;;;;5099153;28;20290;-63
2023/11/24 05:36:09;;;;;;;3.50;3.00;;;;;;;;;;5098887;28;20233;-63
2023/11/24 05:38:38;;;;;;;2.93;2.40;;;;;;;;;;5098632;28;20284;-63
2023/11/24 05:41:06;;;;;;;3.23;2.87;;;;;;;;;;5098727;28;20326;-63
2023/11/24 05:43:34;;;;;;;4.23;3.43;;;;;;;;;;5098952;28;20210;-63
2023/11/24 05:49:18;;;;;;;4.90;3.50;;;;;;;;;;5098630;28;20255;-63
2023/11/24 05:51:47;;;;;;;4.80;3.60;;;;;;;;;;5098384;28;20232;-63
2023/11/24 05:54:15;;;;;;;6.33;4.43;;;;;;;;;;5098399;28;20240;-62
2023/11/24 05:56:43;;;;;;;5.60;4.10;;;;;;;;;;5098538;28;20213;-63
2023/11/24 05:59:11;;;;;;;5.63;4.30;;;;;;;;;;5098715;28;20209;-62
2023/11/24 06:01:42;;;;;;;5.73;4.63;;;;;;;;;;5098465;28;20247;-62
2023/11/24 06:04:10;;;;;;;6.03;4.60;;;;;;;;;;5098681;28;20212;-63
2023/11/24 06:06:40;;;;;;;6.33;4.80;;;;;;;;;;5098305;28;20209;-62
2023/11/24 06:12:30;;;;;;;7.27;4.63;;;;;;;;;;5088527;28;20197;-63
2023/11/24 06:15:16;;;;;;;7.10;5.03;;;;;;;;;;5098298;28;20209;-63
2023/11/24 06:17:44;;;;;;;7.33;5.67;;;;;;;;;;5098130;28;20225;-62
2023/11/24 06:23:50;;;;;;;7.13;5.17;;;;;;;;;;5097782;28;20237;-62
2023/11/24 06:26:33;;;;;;;6.37;5.30;;;;;;;;;;5097918;28;20574;-62
2023/11/24 06:29:01;;;;;;;8.73;5.77;;;;;;;;;;5097913;28;20204;-62
2023/11/24 06:31:29;;;;;;;8.13;5.60;;;;;;;;;;5097738;28;20244;-62
2023/11/24 06:33:58;;;;;;;6.43;4.90;;;;;;;;;;5097738;28;20245;-63
2023/11/24 06:36:27;;;;;;;6.03;4.90;;;;;;;;;;5097720;28;20669;-63
2023/11/24 06:39:02;;;;;;;13.77;6.83;;;;;;;;;;5097543;28;20696;-62
2023/11/24 06:41:30;;;;;;;6.43;5.30;;;;;;;;;;5097663;28;20225;-62
2023/11/24 06:50:20;;;;;;;7.83;5.77;;;;;;;;;;5097358;28;20213;-63
2023/11/24 06:52:48;;;;;;;6.47;5.00;;;;;;;;;;5097543;28;20286;-62
2023/11/24 06:55:20;;;;;;;6.73;4.67;;;;;;;;;;5097419;28;20236;-63
2023/11/24 07:01:26;;;;;;;7.57;5.60;;;;;;;;;;5097717;28;20215;-63
2023/11/24 07:04:14;;;;;;;5.57;4.67;;;;;;;;;;5097586;28;20621;-63
2023/11/24 07:06:42;;;;;;;5.33;4.40;;;;;;;;;;5097573;28;20205;-63
2023/11/24 07:09:10;;;;;;;6.03;3.97;;;;;;;;;;5097451;28;21328;-63
2023/11/24 07:11:42;;;;;;;6.77;4.83;;;;;;;;;;5097432;28;20257;-63
2023/11/24 07:14:11;;;;;;;7.70;5.10;;;;;;;;;;5097320;28;20292;-63
2023/11/24 07:16:41;;;;;;;7.37;4.67;;;;;;;;;;5097688;28;20210;-63
2023/11/24 07:19:10;;;;;;;8.03;5.30;;;;;;;;;;5097364;28;20696;-63
2023/11/24 07:25:06;;;;;;;6.97;4.37;;;;;;;;;;5096450;28;20251;-63
2023/11/24 07:27:38;;;;;;;5.93;5.00;;;;;;;;;;5097630;28;20284;-62
2023/11/24 07:30:07;;;;;;;7.87;5.60;;;;;;;;;;5097239;28;20255;-63
2023/11/24 07:32:38;;;;;;;7.70;5.57;;;;;;;;;;5097504;28;20286;-62
2023/11/24 07:35:08;;;;;;;8.20;4.83;;;;;;;;;;5097133;28;20233;-64
2023/11/24 07:37:41;;;;;;;8.60;4.80;;;;;;;;;;5097251;28;20236;-63
2023/11/24 07:40:13;;;;;;;5.03;4.20;;;;;;;;;;5097325;28;20251;-65
2023/11/24 07:42:58;;;;;;;5.73;4.40;;;;;;;;;;5097371;28;20217;-63
2023/11/24 07:45:29;;;;;;;7.30;4.80;;;;;;;;;;5097503;28;20218;-63
2023/11/24 07:47:57;;;;;;;5.03;4.30;;;;;;;;;;5097158;28;20611;-63
2023/11/24 07:53:55;;;;;;;7.23;4.60;;;;;;;;;;5096331;28;20222;-63
2023/11/24 07:56:31;;;;;;;5.37;3.97;;;;;;;;;;5096934;28;20205;-63
2023/11/24 07:59:01;;;;;;;8.47;4.43;;;;;;;;;;5080740;28;20234;-63
2023/11/24 08:01:29;;;;;;;5.40;4.07;;;;;;;;;;5077391;28;20269;-63
2023/11/24 08:03:57;;;;;;;6.70;4.67;;;;;;;;;;5080367;28;20209;-63
2023/11/24 08:06:25;;;;;;;6.83;4.97;;;;;;;;;;5080536;28;20237;-63
2023/11/24 08:08:53;;;;;;;7.93;4.40;;;;;;;;;;5080262;28;20230;-62
2023/11/24 08:11:22;;;;;;;8.50;4.20;;;;;;;;;;5080154;28;20257;-62
2023/11/24 08:13:50;;;;;;;6.53;4.40;;;;;;;;;;5080259;28;20236;-63
2023/11/24 08:16:19;;;;;;;21.93;4.73;;;;;;;;;;5080486;28;20210;-63
2023/11/24 08:18:48;;;;;;;6.17;4.17;;;;;;;;;;5080365;28;20237;-62
2023/11/24 08:21:18;;;;;;;7.60;3.97;;;;;;;;;;5080365;28;20237;-63
2023/11/24 08:23:46;;;;;;;8.00;4.40;;;;;;;;;;5080138;28;20240;-62
2023/11/24 08:26:17;;;;;;;6.10;4.50;;;;;;;;;;5079947;28;20245;-63
2023/11/24 08:28:45;;;;;;;5.60;4.50;;;;;;;;;;5080315;28;20206;-62
2023/11/24 08:31:17;;;;;;;7.43;4.40;;;;;;;;;;5080040;28;20230;-63
2023/11/24 08:33:48;;;;;;;5.10;4.43;;;;;;;;;;5079449;28;20242;-62
2023/11/24 08:36:17;;;;;;;5.67;4.03;;;;;;;;;;5080010;28;20244;-62
2023/11/24 08:38:45;;;;;;;5.40;4.00;;;;;;;;;;5080135;28;20276;-62
2023/11/24 08:41:14;;;;;;;5.17;4.40;;;;;;;;;;5084386;28;20217;-63
2023/11/24 08:47:25;;;;;;;6.13;4.07;;;;;;;;;;5092045;28;20700;-62
2023/11/24 08:49:54;;;;;;;6.73;3.80;;;;;;;;;;5088404;28;20201;-62
2023/11/24 08:52:26;;;;;;;6.57;4.10;;;;;;;;;;5098226;28;20232;-63
2023/11/24 08:54:54;;;;;;;6.33;4.73;;;;;;;;;;5090707;28;20210;-63
2023/11/24 08:57:22;;;;;;;6.83;4.33;;;;;;;;;;5099005;28;20263;-62
2023/11/24 08:59:50;;;;;;;18.57;12.03;;;;;;;;;;5099562;28;20225;-63
2023/11/24 09:02:40;;;;;;;5.53;4.00;;;;;;;;;;5099396;28;20308;-62
2023/11/24 09:05:13;;;;;;;7.53;3.87;;;;;;;;;;5080371;28;20293;-63
2023/11/24 09:07:41;;;;;;;5.50;4.13;;;;;;;;;;5083289;28;20237;-63
2023/11/24 09:10:46;;;;;;;7.53;3.47;;;;;;;;;;5097376;28;20680;-62
2023/11/24 09:13:14;;;;;;;3.53;3.23;;;;;;;;;;5098138;28;20201;-62
2023/11/24 09:22:34;;;;;;;3.40;3.00;;;;;;;;;;5091305;28;20203;-63
2023/11/24 09:25:03;;;;;;;4.27;2.23;;;;;;;;;;5098999;28;20232;-62
2023/11/24 09:27:34;;;;;;;6.17;2.87;;;;;;;;;;5099111;28;20213;-62
2023/11/24 09:30:04;;;;;;;4.60;2.67;;;;;;;;;;5099416;28;20212;-62
2023/11/24 09:32:34;;;;;;;8.00;3.80;;;;;;;;;;5098488;28;20226;-62
2023/11/24 09:35:07;;;;;;;3.93;2.90;;;;;;;;;;5098722;28;20257;-63
2023/11/24 09:40:58;;;;;;;3.30;2.67;;;;;;;;;;5098148;28;20241;-63
2023/11/24 09:43:26;;;;;;;2.67;2.47;;;;;;;;;;5098962;28;20233;-62
2023/11/24 09:45:56;;;;;;;4.13;3.00;;;;;;;;;;5098949;28;20202;-63
2023/11/24 09:48:24;;;;;;;3.70;2.97;;;;;;;;;;5098781;28;20248;-63
2023/11/24 09:50:52;;;;;;;3.00;2.70;;;;;;;;;;5098624;28;20210;-63
2023/11/24 09:53:23;;;;;;;3.43;2.67;;;;;;;;;;5098693;28;20315;-63
2023/11/24 09:55:52;;;;;;;3.17;2.67;;;;;;;;;;5098804;28;20313;-63
2023/11/24 09:58:23;;;;;;;3.60;2.70;;;;;;;;;;5098645;28;20205;-63
2023/11/24 10:04:01;;;;;;;2.37;2.17;;;;;;;;;;5089773;28;20645;-63
2023/11/24 10:06:38;;;;;;;2.33;2.13;;;;;;;;;;5098643;28;20231;-62
2023/11/24 10:09:14;;;;;;;4.53;2.70;;;;;;;;;;5098347;28;20216;-63
2023/11/24 10:11:42;;;;;;;4.10;2.60;;;;;;;;;;5091703;28;20283;-62
2023/11/24 10:14:12;;;;;;;4.63;3.27;;;;;;;;;;5098366;28;20205;-62
2023/11/24 10:16:41;;;;;;;3.87;2.73;;;;;;;;;;5098185;28;20217;-62
2023/11/24 10:19:14;;;;;;;4.27;2.67;;;;;;;;;;5098020;28;20230;-62
2023/11/24 10:21:48;;;;;;;5.50;2.60;;;;;;;;;;5097846;28;20588;-63
2023/11/24 10:24:16;;;;;;;4.47;3.00;;;;;;;;;;5097110;28;20638;-63
2023/11/24 10:26:45;;;;;;;2.30;2.10;;;;;;;;;;5098198;28;20240;-63
2023/11/24 10:29:16;;;;;;;2.50;2.30;;;;;;;;;;5098122;28;20201;-63
2023/11/24 10:31:53;;;;;;;3.63;2.20;;;;;;;;;;5097923;28;20259;-63
2023/11/24 10:35:01;;;;;;;2.90;2.60;;;;;;;;;;5097242;28;20229;-63
2023/11/24 10:37:30;;;;;;;3.07;2.50;;;;;;;;;;5097541;28;20562;-62
2023/11/24 10:40:09;;;;;;;2.80;2.53;;;;;;;;;;5097780;28;20226;-62
2023/11/24 10:42:39;;;;;;;3.03;2.50;;;;;;;;;;5096679;28;20224;-63
2023/11/24 10:45:11;;;;;;;3.47;2.37;;;;;;;;;;5090236;28;20568;-62
2023/11/24 10:47:43;;;;;;;5.00;2.90;;;;;;;;;;5097786;28;20219;-61
2023/11/24 10:50:13;;;;;;;4.23;3.10;;;;;;;;;;5098033;28;20198;-63
2023/11/24 10:55:49;;;;;;;2.80;2.50;;;;;;;;;;5072812;28;20688;-61
2023/11/24 10:58:17;;;;;;;3.53;2.17;;;;;;;;;;5097761;28;20210;-62
2023/11/24 11:00:47;;;;;;;2.20;2.00;;;;;;;;;;5097829;28;20681;-62
2023/11/24 11:03:16;;;;;;;2.20;2.00;;;;;;;;;;5097552;28;20209;-61
2023/11/24 11:05:53;;;;;;;1.53;1.43;;;;;;;;;;5097751;28;20242;-62
2023/11/24 11:08:28;;;;;;;4.97;1.60;;;;;;;;;;5097541;28;20201;-61
2023/11/24 11:11:12;;;;;;;3.23;1.40;;;;;;;;;;5097255;28;20254;-60
2023/11/24 11:13:41;;;;;;;4.37;1.97;;;;;;;;;;5088988;28;20233;-61
2023/11/24 11:16:13;;;;;;;1.47;1.37;;;;;;;;;;5097452;28;20615;-61
2023/11/24 11:18:41;;;;;;;3.33;1.83;;;;;;;;;;5097404;28;20630;-62
2023/11/24 11:21:17;;;;;;;1.30;1.20;;;;;;;;;;5097265;28;20229;-61
2023/11/24 11:23:45;;;;;;;1.43;1.17;;;;;;;;;;5097367;28;20255;-60
2023/11/24 11:26:33;;;;;;;1.67;1.20;;;;;;;;;;5097603;28;20232;-61
2023/11/24 11:29:03;;;;;;;3.07;1.40;;;;;;;;;;5097170;28;20671;-61
2023/11/24 11:31:37;;;;;;;1.60;1.50;;;;;;;;;;5097552;28;20261;-61
2023/11/24 11:34:17;;;;;;;1.17;1.03;;;;;;;;;;5097261;28;20291;-61
2023/11/24 11:36:52;;;;;;;1.80;1.23;;;;;;;;;;5099898;28;20201;-61
2023/11/24 11:39:26;;;;;;;1.63;1.47;;;;;;;;;;5101152;28;20208;-62
2023/11/24 11:41:55;;;;;;;1.97;1.30;;;;;;;;;;5101217;28;20221;-61
2023/11/24 11:44:33;;;;;;;1.40;1.30;;;;;;;;;;5101443;28;20267;-61
2023/11/24 11:47:03;;;;;;;2.50;1.40;;;;;;;;;;5101001;28;20197;-61
2023/11/24 11:49:32;;;;;;;1.20;1.10;;;;;;;;;;5101089;28;20209;-61
2023/11/24 11:52:04;;;;;;;1.53;1.30;;;;;;;;;;5100876;28;20240;-61
2023/11/24 11:54:33;;;;;;;7.10;3.27;;;;;;;;;;5101173;28;20212;-62
2023/11/24 11:57:01;;;;;;;3.00;2.13;;;;;;;;;;5100834;28;20643;-63
2023/11/24 11:59:29;;;;;;;1.97;1.40;;;;;;;;;;5101067;28;20205;-63
2023/11/24 12:01:58;;;;;;;2.37;1.40;;;;;;;;;;5100872;28;20274;-62
2023/11/24 12:04:29;;;;;;;1.00;1.00;;;;;;;;;;5101052;28;20205;-62
2023/11/24 12:06:57;;;;;;;4.87;1.33;;;;;;;;;;5100581;28;20578;-62
2023/11/24 12:09:25;;;;;;;1.63;1.33;;;;;;;;;;5100769;28;20202;-62
2023/11/24 12:11:53;;;;;;;1.90;1.23;;;;;;;;;;5098088;28;20241;-62
2023/11/24 12:14:25;;;;;;;2.33;1.43;;;;;;;;;;5100787;28;20212;-62
2023/11/24 12:16:54;;;;;;;2.03;1.20;;;;;;;;;;5100771;28;20205;-63
2023/11/24 12:19:23;;;;;;;1.63;1.23;;;;;;;;;;5100539;28;20264;-62
2023/11/24 12:21:52;;;;;;;4.83;1.00;;;;;;;;;;5100451;28;20230;-62
2023/11/24 12:24:22;;;;;;;1.30;1.20;;;;;;;;;;5100337;28;20209;-63
2023/11/24 12:26:50;;;;;;;2.13;0.87;;;;;;;;;;5100475;28;20612;-63
2023/11/24 12:29:18;;;;;;;1.80;0.97;;;;;;;;;;5098786;28;20247;-63
2023/11/24 12:31:46;;;;;;;1.83;1.33;;;;;;;;;;5099935;28;20209;-63
2023/11/24 12:34:20;;;;;;;4.10;1.13;;;;;;;;;;5095026;28;20238;-63
2023/11/24 12:36:48;;;;;;;0.80;0.80;;;;;;;;;;5099786;28;20208;-63
2023/11/24 12:39:19;;;;;;;0.90;0.90;;;;;;;;;;5096885;28;20206;-63
2023/11/24 12:41:47;;;;;;;2.20;1.00;;;;;;;;;;5099715;28;20275;-62
2023/11/24 12:44:15;;;;;;;1.20;1.20;;;;;;;;;;5099221;28;20220;-63
2023/11/24 12:46:43;;;;;;;1.73;1.50;;;;;;;;;;5099698;28;20201;-62
2023/11/24 12:49:12;;;;;;;2.43;1.40;;;;;;;;;;5096644;28;20262;-63
2023/11/24 12:51:46;;;;;;;3.47;1.00;;;;;;;;;;5099428;28;20226;-62
2023/11/24 12:54:14;;;;;;;1.30;1.03;;;;;;;;;;5097694;28;20205;-63
2023/11/24 12:56:44;;;;;;;3.27;0.93;;;;;;;;;;5098562;28;20584;-64
2023/11/24 12:59:12;;;;;;;0.80;0.80;;;;;;;;;;5097256;28;20202;-64
2023/11/24 13:01:40;;;;;;;1.50;1.20;;;;;;;;;;5096553;28;20229;-64
2023/11/24 13:04:20;;;;;;;1.47;0.93;;;;;;;;;;5079653;28;20267;-63
2023/11/24 13:06:49;;;;;;;1.13;1.00;;;;;;;;;;5079392;28;20205;-63
2023/11/24 13:09:18;;;;;;;1.50;0.87;;;;;;;;;;5079173;28;20256;-64
2023/11/24 13:11:48;;;;;;;4.73;0.70;;;;;;;;;;5083660;28;20750;-64
2023/11/24 13:14:19;;;;;;;1.00;0.70;;;;;;;;;;5099662;28;20292;-64
2023/11/24 13:16:51;;;;;;;1.83;1.20;;;;;;;;;;5099477;28;20209;-64
2023/11/24 13:19:28;;;;;;;3.23;1.40;;;;;;;;;;5099132;28;20209;-64
2023/11/24 13:21:57;;;;;;;0.50;0.50;;;;;;;;;;5099130;28;20233;-63
2023/11/24 13:24:25;;;;;;;0.40;0.40;;;;;;;;;;5099434;28;20201;-64
2023/11/24 13:26:55;;;;;;;0.40;0.40;;;;;;;;;;5099446;28;20206;-64
2023/11/24 13:29:23;;;;;;;1.70;0.70;;;;;;;;;;5099312;28;20214;-64
2023/11/24 13:31:52;;;;;;;0.60;0.60;;;;;;;;;;5099233;28;20275;-64
2023/11/24 13:34:26;;;;;;;3.70;0.87;;;;;;;;;;5098992;28;20268;-64
2023/11/24 13:36:55;;;;;;;0.67;0.67;;;;;;;;;;5098880;28;20205;-64
2023/11/24 13:39:28;;;;;;;0.83;0.70;;;;;;;;;;5098844;28;20216;-64
2023/11/24 13:41:59;;;;;;;1.60;0.67;;;;;;;;;;5098688;28;20696;-63
2023/11/24 13:44:29;;;;;;;0.90;0.70;;;;;;;;;;5099111;28;20205;-63
2023/11/24 13:46:57;;;;;;;0.70;0.60;;;;;;;;;;5098970;28;20258;-64
2023/11/24 13:49:26;;;;;;;0.63;0.50;;;;;;;;;;5098727;28;20580;-64
2023/11/24 13:51:54;;;;;;;0.50;0.50;;;;;;;;;;5098376;28;20275;-64
2023/11/24 13:54:23;;;;;;;0.77;0.57;;;;;;;;;;5098680;28;20207;-64
2023/11/24 13:56:53;;;;;;;0.50;0.50;;;;;;;;;;5098315;28;20233;-64
2023/11/24 13:59:24;;;;;;;0.77;0.40;;;;;;;;;;5098419;28;20217;-64
2023/11/24 14:01:54;;;;;;;1.43;0.53;;;;;;;;;;5098525;28;20261;-64
2023/11/24 14:04:22;;;;;;;1.90;1.53;;;;;;;;;;5098453;28;20665;-64
2023/11/24 14:06:51;;;;;;;1.30;0.80;;;;;;;;;;5098457;28;20292;-64
2023/11/24 14:09:31;;;;;;;1.67;0.80;;;;;;;;;;5098149;28;20573;-64
2023/11/24 14:12:00;;;;;;;0.77;0.70;;;;;;;;;;5096236;28;20248;-64
2023/11/24 14:14:29;;;;;;;0.97;0.80;;;;;;;;;;5098470;28;20220;-64
2023/11/24 14:16:58;;;;;;;0.97;0.73;;;;;;;;;;5098266;28;20205;-64
2023/11/24 14:19:27;;;;;;;0.77;0.70;;;;;;;;;;5098420;28;20210;-64
2023/11/24 14:21:55;;;;;;;0.63;0.50;;;;;;;;;;5097981;28;20225;-64
2023/11/24 14:24:24;;;;;;;0.87;0.80;;;;;;;;;;5098218;28;20668;-64
2023/11/24 14:26:52;;;;;;;0.83;0.70;;;;;;;;;;5098307;28;20201;-64
2023/11/24 14:29:20;;;;;;;1.80;0.90;;;;;;;;;;5098297;28;20209;-64
2023/11/24 14:31:50;;;;;;;1.93;0.77;;;;;;;;;;5097777;28;20672;-64
2023/11/24 14:34:19;;;;;;;0.67;0.60;;;;;;;;;;5097993;28;20237;-64
2023/11/24 14:36:49;;;;;;;0.60;0.60;;;;;;;;;;5098116;28;20201;-64
2023/11/24 14:39:25;;;;;;;1.70;1.00;;;;;;;;;;5097692;28;20577;-64
2023/11/24 14:41:55;;;;;;;1.97;0.70;;;;;;;;;;5097709;28;20339;-64
2023/11/24 14:44:23;;;;;;;0.67;0.67;;;;;;;;;;5084939;28;20210;-64
2023/11/24 14:46:53;;;;;;;0.60;0.57;;;;;;;;;;5097997;28;20201;-64
2023/11/24 14:49:21;;;;;;;0.60;0.60;;;;;;;;;;5084542;28;20703;-64
2023/11/24 14:51:49;;;;;;;1.47;0.80;;;;;;;;;;5097495;28;20239;-64
2023/11/24 14:54:20;;;;;;;4.33;0.90;;;;;;;;;;5097966;28;20221;-64
2023/11/24 14:56:49;;;;;;;0.97;0.80;;;;;;;;;;5097918;28;20208;-64
2023/11/24 14:59:19;;;;;;;1.73;0.80;;;;;;;;;;5097665;28;20209;-64
2023/11/24 15:01:47;;;;;;;2.73;0.97;;;;;;;;;;5097448;28;20677;-64
2023/11/24 15:04:18;;;;;;;3.33;1.40;;;;;;;;;;5097638;28;20662;-64
2023/11/24 15:06:51;;;;;;;0.93;0.87;;;;;;;;;;5097644;28;20289;-64
2023/11/24 15:09:20;;;;;;;1.63;0.70;;;;;;;;;;5097488;28;20209;-64
2023/11/24 15:11:51;;;;;;;0.87;0.83;;;;;;;;;;5097527;28;20228;-64
2023/11/24 15:14:30;;;;;;;1.83;0.93;;;;;;;;;;5101963;28;20231;-64
2023/11/24 15:17:03;;;;;;;0.90;0.80;;;;;;;;;;5101844;28;20205;-64
2023/11/24 15:19:35;;;;;;;1.00;0.90;;;;;;;;;;5101848;28;20231;-64
2023/11/24 15:22:05;;;;;;;1.00;0.90;;;;;;;;;;5100883;28;20750;-64
2023/11/24 15:24:35;;;;;;;1.07;0.90;;;;;;;;;;5101506;28;20213;-64
2023/11/24 15:27:07;;;;;;;2.53;1.40;;;;;;;;;;5101755;28;20598;-64
2023/11/24 15:29:37;;;;;;;1.10;0.80;;;;;;;;;;5101281;28;20262;-64
2023/11/24 15:32:09;;;;;;;1.00;0.90;;;;;;;;;;5101321;28;20217;-64
2023/11/24 15:34:38;;;;;;;3.93;1.30;;;;;;;;;;5101270;28;20248;-64
2023/11/24 15:37:06;;;;;;;0.80;0.63;;;;;;;;;;5101196;28;20266;-64
2023/11/24 15:39:40;;;;;;;2.30;1.40;;;;;;;;;;5100720;28;20542;-63
2023/11/24 15:42:12;;;;;;;0.93;0.93;;;;;;;;;;5100271;28;20239;-64
2023/11/24 15:44:48;;;;;;;4.87;1.10;;;;;;;;;;5099736;28;20713;-64
2023/11/24 15:47:21;;;;;;;3.03;1.23;;;;;;;;;;5094575;28;20564;-64